METAR EVRA 171220Z 34008KT CAVOK 20/16 Q1016 NOSIG =

[04 MAY 2013] Baltic Harbor Tour 3

Image



After the unexpected success Baltic Harbour Tour events was 100% successful, thanks to high ability of qualified pilots and dispatcher.

At the request of many pilots and ATC controllers, it was decided to repeat the event.
This time We prepared the following route between: Kuressaare, Tallinn, Tartu, Riga and Vilnus


04/05/2013 from 17:00UTC to 20:00UTC

Controllers Online

PositionControllerOnline
No controllers currently online

Booked ATC Today

No ATC booked yet.
Be the first for today!
* Times are UTC

The time is now

UTC: 

Local: 

Latvia vACC on twitter